Time;durP1;ratioP1;P1;durP2;ratioP2;P2;SDS_P1;SDS_P2;PMS_P1;PMS_P2;Temp;Humidity;BMP_temperature;BMP_pressure;BME280_temperature;BME280_humidity;BME280_pressure;Samples;Min_cycle;Max_cycle;Signal;HPM_P1;HPM_P2
2022/04/15 00:00:11;;;;;;;11.20;6.53;;;11.90;66.10;;;;;;2374071;56;21090;-76
2022/04/15 00:02:39;;;;;;;13.70;7.05;;;11.90;66.10;;;;;;2374380;56;21070;-75
2022/04/15 00:07:55;;;;;;;12.57;6.12;;;11.80;66.20;;;;;;2626185;52;21047;-77
2022/04/15 00:10:23;;;;;;;16.02;6.72;;;11.80;66.20;;;;;;2374143;56;21019;-75
2022/04/15 00:12:53;;;;;;;11.75;5.85;;;11.70;66.40;;;;;;2626775;52;21111;-76
2022/04/15 00:15:21;;;;;;;9.20;5.30;;;11.70;66.70;;;;;;2373766;56;21043;-76
2022/04/15 00:17:48;;;;;;;11.07;6.40;;;11.80;66.80;;;;;;2374008;56;21632;-76
2022/04/15 00:20:15;;;;;;;13.40;6.75;;;11.80;66.80;;;;;;2373786;56;21141;-75
2022/04/15 00:22:42;;;;;;;10.18;6.05;;;11.80;66.70;;;;;;2373662;56;21142;-76
2022/04/15 00:25:10;;;;;;;10.07;5.45;;;11.80;66.90;;;;;;2373317;56;21055;-75
2022/04/15 00:27:38;;;;;;;11.27;6.50;;;11.80;66.60;;;;;;2373577;56;21038;-75
2022/04/15 00:30:08;;;;;;;9.80;6.03;;;11.80;66.40;;;;;;2373606;56;21110;-75
2022/04/15 00:32:36;;;;;;;11.68;6.78;;;11.80;66.50;;;;;;2626771;52;21039;-75
2022/04/15 00:35:05;;;;;;;13.02;6.43;;;11.80;66.70;;;;;;2373827;56;21169;-76
2022/04/15 00:37:32;;;;;;;11.75;5.80;;;11.80;66.60;;;;;;2373534;56;21043;-75
2022/04/15 00:40:02;;;;;;;10.93;6.03;;;11.80;66.60;;;;;;2373752;56;21135;-76
2022/04/15 00:42:30;;;;;;;9.75;5.85;;;11.90;66.70;;;;;;2627267;52;21058;-75
2022/04/15 00:44:58;;;;;;;16.75;6.55;;;11.90;67.50;;;;;;2373592;56;21102;-76
2022/04/15 00:47:44;;;;;;;11.40;6.07;;;11.80;67.00;;;;;;2372773;56;21125;-76
2022/04/15 00:50:12;;;;;;;9.63;5.65;;;11.80;66.70;;;;;;2373611;56;21035;-75
2022/04/15 00:52:43;;;;;;;10.38;6.12;;;11.90;66.80;;;;;;2373916;56;21051;-75
2022/04/15 00:55:12;;;;;;;14.35;6.55;;;11.90;66.50;;;;;;2373730;56;21114;-75
2022/04/15 00:57:41;;;;;;;9.85;5.90;;;11.90;66.40;;;;;;2373681;56;21043;-75
2022/04/15 01:00:11;;;;;;;8.05;5.70;;;11.90;66.50;;;;;;2373983;56;21129;-77
2022/04/15 01:02:39;;;;;;;11.48;6.47;;;11.90;66.60;;;;;;2373214;56;21066;-75
2022/04/15 01:05:09;;;;;;;12.55;6.05;;;11.90;66.70;;;;;;2373546;56;21035;-75
2022/04/15 01:07:38;;;;;;;11.38;5.78;;;11.90;66.70;;;;;;2373449;56;22212;-75
2022/04/15 01:10:09;;;;;;;11.38;6.53;;;11.80;66.90;;;;;;2373776;56;21043;-76
2022/04/15 01:12:39;;;;;;;14.05;7.32;;;11.80;67.10;;;;;;2627387;52;21031;-74
2022/04/15 01:15:10;;;;;;;11.98;6.50;;;11.80;67.20;;;;;;2373626;56;21047;-75
2022/04/15 01:17:38;;;;;;;18.45;6.80;;;11.80;67.10;;;;;;2373703;56;21577;-75
2022/04/15 01:20:08;;;;;;;15.20;6.78;;;11.80;67.20;;;;;;2373199;56;21015;-76
2022/04/15 01:22:39;;;;;;;14.52;7.10;;;11.70;67.60;;;;;;2626771;52;21055;-74
2022/04/15 01:25:09;;;;;;;14.48;7.25;;;11.70;67.70;;;;;;2626673;52;21047;-76
2022/04/15 01:27:39;;;;;;;14.95;7.00;;;11.70;67.80;;;;;;2373559;56;21046;-75
2022/04/15 01:30:14;;;;;;;12.25;6.80;;;11.70;67.90;;;;;;2372639;56;21042;-76
2022/04/15 01:32:42;;;;;;;13.62;7.28;;;11.70;68.00;;;;;;2373857;56;21573;-75
2022/04/15 01:35:11;;;;;;;13.10;7.22;;;11.70;67.80;;;;;;2374087;56;21035;-75
2022/04/15 01:37:40;;;;;;;17.45;7.72;;;11.70;68.00;;;;;;2626627;52;21701;-74
2022/04/15 01:40:10;;;;;;;15.68;8.20;;;11.70;68.00;;;;;;2373957;56;21126;-77
2022/04/15 01:42:38;;;;;;;14.23;7.53;;;11.70;67.90;;;;;;2373897;56;21113;-75
2022/04/15 01:45:08;;;;;;;17.08;7.28;;;11.70;67.90;;;;;;2373719;56;21043;-75
2022/04/15 01:47:36;;;;;;;12.90;7.43;;;11.70;67.70;;;;;;2372522;56;21310;-75
2022/04/15 01:50:04;;;;;;;12.52;7.10;;;11.70;67.80;;;;;;2627637;52;21090;-74
2022/04/15 01:52:31;;;;;;;12.35;7.75;;;11.70;67.90;;;;;;2374029;56;21011;-75
2022/04/15 01:54:58;;;;;;;11.15;7.25;;;11.70;67.80;;;;;;2374201;56;21616;-76
2022/04/15 01:57:26;;;;;;;16.62;7.80;;;11.70;67.80;;;;;;2373738;56;21042;-75
2022/04/15 01:59:53;;;;;;;17.02;8.10;;;11.70;68.10;;;;;;2627191;52;21079;-75
2022/04/15 02:02:20;;;;;;;14.90;7.55;;;11.60;68.00;;;;;;2372566;56;21038;-77
2022/04/15 02:04:47;;;;;;;14.68;6.90;;;11.60;68.20;;;;;;2373598;56;21130;-75
2022/04/15 02:07:15;;;;;;;13.20;7.75;;;11.60;68.50;;;;;;2373718;56;21043;-76
2022/04/15 02:09:42;;;;;;;13.52;8.30;;;11.60;68.20;;;;;;2374453;56;21075;-75
2022/04/15 02:12:10;;;;;;;13.18;7.70;;;11.60;68.40;;;;;;2373757;56;21561;-75
2022/04/15 02:14:38;;;;;;;13.90;8.80;;;11.60;68.50;;;;;;2374229;56;21051;-75
2022/04/15 02:17:05;;;;;;;17.92;7.60;;;11.60;68.40;;;;;;2373363;56;21043;-75
2022/04/15 02:19:32;;;;;;;12.80;7.10;;;11.60;68.40;;;;;;2374003;56;21094;-75
2022/04/15 02:22:01;;;;;;;15.05;7.10;;;11.60;68.50;;;;;;2373024;56;21173;-75
2022/04/15 02:24:28;;;;;;;13.20;7.05;;;11.60;69.50;;;;;;2373604;56;21051;-76
2022/04/15 02:26:55;;;;;;;17.17;7.35;;;11.70;68.50;;;;;;2373535;56;21047;-75
2022/04/15 02:29:22;;;;;;;13.27;7.57;;;11.60;68.30;;;;;;2374167;56;21118;-76
2022/04/15 02:31:49;;;;;;;17.15;8.02;;;11.60;68.40;;;;;;2373969;56;21062;-75
2022/04/15 02:34:17;;;;;;;15.25;7.47;;;11.70;68.50;;;;;;2373660;56;21051;-74
2022/04/15 02:36:44;;;;;;;13.50;7.95;;;11.70;68.60;;;;;;2373055;56;21058;-74
2022/04/15 02:39:11;;;;;;;13.02;7.68;;;11.70;68.70;;;;;;2372993;56;21114;-75
2022/04/15 02:41:41;;;;;;;15.68;8.85;;;11.60;68.50;;;;;;2373725;56;21080;-77
2022/04/15 02:44:09;;;;;;;10.38;6.68;;;11.60;68.80;;;;;;2373964;56;21102;-75
2022/04/15 02:46:36;;;;;;;16.05;7.12;;;11.60;69.00;;;;;;2373497;56;21051;-75
2022/04/15 02:49:04;;;;;;;18.92;8.60;;;11.60;68.90;;;;;;2373778;56;21090;-75
2022/04/15 02:51:31;;;;;;;20.58;9.25;;;11.60;69.00;;;;;;2373396;56;21042;-75
2022/04/15 02:53:59;;;;;;;15.60;7.72;;;11.60;68.90;;;;;;2373818;56;21031;-74
2022/04/15 02:56:26;;;;;;;17.30;8.65;;;11.60;68.90;;;;;;2373795;56;21534;-75
2022/04/15 02:58:53;;;;;;;14.07;7.93;;;11.60;69.00;;;;;;2373893;56;21142;-74
2022/04/15 03:01:20;;;;;;;19.40;8.68;;;11.50;69.20;;;;;;2374025;56;21118;-74
2022/04/15 03:03:48;;;;;;;16.23;8.95;;;11.60;69.50;;;;;;2373774;56;21047;-75
2022/04/15 03:06:15;;;;;;;20.75;9.35;;;11.50;69.70;;;;;;2625760;52;21043;-75
2022/04/15 03:08:42;;;;;;;24.30;10.95;;;11.50;69.80;;;;;;2373371;56;21086;-76
2022/04/15 03:11:09;;;;;;;19.17;8.95;;;11.50;70.40;;;;;;2373797;56;21103;-75
2022/04/15 03:13:37;;;;;;;14.77;7.90;;;11.50;70.20;;;;;;2626610;52;21118;-75
2022/04/15 03:16:05;;;;;;;17.67;9.43;;;11.50;70.20;;;;;;2372975;56;21047;-76
2022/04/15 03:18:32;;;;;;;17.92;9.15;;;11.50;69.80;;;;;;2373462;56;21293;-75
2022/04/15 03:21:00;;;;;;;17.80;10.23;;;11.60;69.90;;;;;;2372953;56;21043;-76
2022/04/15 03:23:27;;;;;;;17.95;9.82;;;11.60;69.90;;;;;;2373296;56;21139;-75
2022/04/15 03:25:55;;;;;;;16.50;10.25;;;11.50;70.00;;;;;;2626360;52;21128;-75
2022/04/15 03:28:22;;;;;;;18.90;10.48;;;11.50;70.10;;;;;;2373776;56;21055;-74
2022/04/15 03:30:50;;;;;;;17.80;9.60;;;11.40;69.80;;;;;;2627047;52;21043;-73
2022/04/15 03:33:17;;;;;;;21.33;9.48;;;11.40;69.80;;;;;;2373713;56;21023;-74
2022/04/15 03:35:44;;;;;;;22.33;11.18;;;11.40;69.80;;;;;;2373855;56;21051;-75
2022/04/15 03:38:12;;;;;;;17.45;10.20;;;11.40;69.90;;;;;;2373041;56;21549;-75
2022/04/15 03:40:39;;;;;;;19.85;10.95;;;11.40;70.20;;;;;;2373419;56;21045;-75
2022/04/15 03:43:06;;;;;;;20.52;10.70;;;11.40;70.60;;;;;;2626526;52;21047;-75
2022/04/15 03:45:33;;;;;;;20.60;12.50;;;11.30;70.70;;;;;;2373788;56;21154;-75
2022/04/15 03:48:01;;;;;;;22.35;12.75;;;11.40;70.50;;;;;;2626971;52;21059;-76
2022/04/15 03:50:28;;;;;;;19.20;11.35;;;11.40;70.70;;;;;;2374245;56;21098;-75
2022/04/15 03:52:55;;;;;;;21.80;12.75;;;11.30;70.80;;;;;;2373115;56;21189;-76
2022/04/15 03:55:24;;;;;;;24.90;12.80;;;11.30;71.00;;;;;;2372356;56;21043;-75
2022/04/15 03:57:52;;;;;;;19.95;13.02;;;11.20;71.20;;;;;;2373635;56;21040;-76
2022/04/15 04:00:21;;;;;;;21.65;13.32;;;11.20;71.20;;;;;;2374102;56;21518;-75
2022/04/15 04:02:49;;;;;;;22.10;11.30;;;11.20;71.20;;;;;;2373847;56;21043;-77
2022/04/15 04:05:17;;;;;;;21.58;13.00;;;11.30;70.90;;;;;;2374039;56;21107;-78
2022/04/15 04:07:45;;;;;;;21.48;12.43;;;11.30;71.10;;;;;;2373853;56;21054;-76
2022/04/15 04:10:13;;;;;;;24.58;15.52;;;11.30;71.30;;;;;;2625514;52;21182;-76
2022/04/15 04:12:42;;;;;;;24.52;14.25;;;11.20;71.60;;;;;;2373156;56;21057;-76
2022/04/15 04:15:10;;;;;;;27.98;14.87;;;11.20;71.80;;;;;;2373059;56;21598;-76
2022/04/15 04:17:38;;;;;;;22.95;12.75;;;11.20;72.00;;;;;;2373568;56;21099;-75
2022/04/15 04:20:09;;;;;;;24.75;15.30;;;11.20;71.90;;;;;;2373318;56;21121;-76
2022/04/15 04:22:38;;;;;;;24.92;14.00;;;11.20;72.00;;;;;;2373927;56;21051;-77
2022/04/15 04:25:08;;;;;;;21.92;14.55;;;11.20;71.90;;;;;;2373261;56;21039;-76
2022/04/15 04:27:36;;;;;;;22.87;13.43;;;11.20;71.80;;;;;;2373054;56;21055;-76
2022/04/15 04:30:07;;;;;;;23.52;13.50;;;11.30;71.70;;;;;;2374106;56;21047;-76
2022/04/15 04:32:34;;;;;;;23.48;14.05;;;11.30;71.60;;;;;;2375381;56;21051;-78
2022/04/15 04:35:02;;;;;;;24.92;13.20;;;11.30;71.70;;;;;;2373559;56;21090;-74
2022/04/15 04:37:29;;;;;;;23.75;12.93;;;11.30;71.70;;;;;;2626599;52;21089;-75
2022/04/15 04:39:56;;;;;;;21.35;11.82;;;11.30;71.70;;;;;;2372287;56;21131;-77
2022/04/15 04:42:24;;;;;;;25.88;15.50;;;11.40;71.70;;;;;;2373082;56;21102;-75
2022/04/15 04:44:52;;;;;;;26.20;15.35;;;11.40;71.80;;;;;;2373276;56;21533;-74
2022/04/15 04:47:20;;;;;;;26.85;14.70;;;11.30;71.70;;;;;;2373397;56;21047;-75
2022/04/15 04:49:48;;;;;;;25.35;15.07;;;11.40;71.70;;;;;;2372959;56;21103;-76
2022/04/15 04:52:15;;;;;;;28.05;13.88;;;11.40;71.70;;;;;;2626792;52;21055;-75
2022/04/15 04:54:43;;;;;;;28.80;14.38;;;11.40;71.80;;;;;;2373293;56;21131;-75
2022/04/15 04:57:10;;;;;;;27.50;15.57;;;11.40;71.90;;;;;;2372621;56;21066;-76
2022/04/15 04:59:37;;;;;;;28.75;14.77;;;11.50;72.00;;;;;;2373794;56;21553;-77
2022/04/15 05:02:05;;;;;;;26.50;14.30;;;11.40;72.00;;;;;;2373704;56;21066;-74
2022/04/15 05:04:32;;;;;;;27.55;15.57;;;11.40;71.70;;;;;;2373479;56;21093;-75
2022/04/15 05:07:00;;;;;;;33.30;16.98;;;11.50;71.90;;;;;;2373083;56;21125;-76
2022/04/15 05:09:27;;;;;;;36.60;17.80;;;11.50;72.00;;;;;;2373250;56;21102;-75
2022/04/15 05:11:55;;;;;;;30.88;16.37;;;11.50;71.90;;;;;;2627395;52;21047;-75
2022/04/15 05:14:22;;;;;;;31.40;16.67;;;11.40;71.70;;;;;;2373202;56;21135;-76
2022/04/15 05:16:49;;;;;;;29.08;15.88;;;11.50;71.80;;;;;;2372780;56;21526;-75
2022/04/15 05:19:16;;;;;;;29.80;16.73;;;11.50;72.10;;;;;;2373160;56;21122;-75
2022/04/15 05:21:44;;;;;;;33.53;16.40;;;11.50;72.10;;;;;;2374094;56;21047;-75
2022/04/15 05:24:12;;;;;;;27.42;15.45;;;11.50;72.30;;;;;;2373480;56;21197;-75
2022/04/15 05:26:39;;;;;;;28.40;15.15;;;11.50;72.30;;;;;;2373211;56;21055;-75
2022/04/15 05:29:08;;;;;;;27.37;15.43;;;11.50;72.00;;;;;;2372620;56;21055;-75
2022/04/15 05:31:35;;;;;;;32.33;17.08;;;11.50;73.00;;;;;;2372833;56;21364;-76
2022/04/15 05:34:03;;;;;;;23.48;13.75;;;11.50;72.20;;;;;;2626649;52;21111;-75
2022/04/15 05:36:30;;;;;;;30.33;16.17;;;11.50;71.90;;;;;;2626908;52;21059;-75
2022/04/15 05:38:57;;;;;;;28.08;16.08;;;11.60;71.80;;;;;;2373736;56;21043;-78
2022/04/15 05:41:25;;;;;;;30.33;15.93;;;11.50;72.10;;;;;;2627534;52;21082;-75
2022/04/15 05:43:52;;;;;;;34.10;16.70;;;11.60;72.00;;;;;;2373899;56;21113;-75
2022/04/15 05:46:19;;;;;;;30.40;14.82;;;11.60;72.00;;;;;;2371541;56;21067;-75
2022/04/15 05:48:47;;;;;;;34.70;18.25;;;11.60;72.30;;;;;;2373932;56;21106;-75
2022/04/15 05:51:14;;;;;;;32.88;16.20;;;11.60;72.50;;;;;;2373701;56;21039;-75
2022/04/15 05:53:41;;;;;;;29.37;14.90;;;11.60;72.50;;;;;;2373614;56;21046;-76
2022/04/15 05:56:08;;;;;;;29.77;12.80;;;11.60;72.40;;;;;;2626824;52;21051;-78
2022/04/15 05:58:36;;;;;;;27.23;15.38;;;11.70;72.10;;;;;;2373310;56;21115;-75
2022/04/15 06:01:05;;;;;;;36.40;18.20;;;11.70;71.70;;;;;;2373805;56;21050;-77
2022/04/15 06:03:33;;;;;;;36.40;18.17;;;11.70;71.90;;;;;;2373462;56;21119;-75
2022/04/15 06:06:00;;;;;;;40.00;19.10;;;11.70;72.10;;;;;;2373268;56;21122;-75
2022/04/15 06:08:28;;;;;;;35.72;17.52;;;11.70;72.40;;;;;;2373418;56;21118;-75
2022/04/15 06:10:55;;;;;;;35.58;17.33;;;11.70;72.60;;;;;;2373790;56;21621;-77
2022/04/15 06:13:23;;;;;;;33.47;17.85;;;11.60;72.80;;;;;;2373952;56;21115;-74
2022/04/15 06:15:53;;;;;;;40.35;19.77;;;11.50;73.20;;;;;;2373111;56;21122;-77
2022/04/15 06:18:20;;;;;;;36.50;17.42;;;11.50;74.30;;;;;;2373043;56;21031;-75
2022/04/15 06:20:48;;;;;;;30.58;14.82;;;11.40;73.90;;;;;;2373232;56;21054;-74
2022/04/15 06:23:17;;;;;;;29.87;13.62;;;11.40;74.80;;;;;;2373322;56;21071;-74
2022/04/15 06:25:45;;;;;;;32.15;15.73;;;11.30;74.10;;;;;;2373271;56;21110;-76
2022/04/15 06:28:13;;;;;;;25.12;13.30;;;11.30;74.30;;;;;;2373946;56;21051;-76
2022/04/15 06:30:41;;;;;;;31.05;15.18;;;11.30;74.50;;;;;;2373484;56;21062;-77
2022/04/15 06:33:09;;;;;;;31.92;15.07;;;11.40;74.30;;;;;;2373272;56;21098;-73
2022/04/15 06:35:36;;;;;;;33.83;14.20;;;11.40;74.30;;;;;;2372475;56;21039;-74
2022/04/15 06:38:03;;;;;;;34.78;15.57;;;11.50;73.90;;;;;;2373851;56;21660;-76
2022/04/15 06:40:31;;;;;;;33.70;14.80;;;11.40;74.80;;;;;;2373069;56;21067;-76
2022/04/15 06:42:58;;;;;;;32.33;13.90;;;11.40;74.40;;;;;;2373707;56;21039;-75
2022/04/15 06:45:26;;;;;;;36.47;17.95;;;11.30;74.40;;;;;;2371663;56;21062;-74
2022/04/15 06:47:53;;;;;;;28.92;14.68;;;11.30;74.50;;;;;;2371873;56;21161;-74
2022/04/15 06:50:21;;;;;;;31.80;14.82;;;11.30;74.90;;;;;;2373343;56;21137;-75
2022/04/15 06:52:48;;;;;;;28.73;14.43;;;11.30;75.10;;;;;;2373338;56;21039;-74
2022/04/15 06:55:15;;;;;;;35.00;15.55;;;11.30;75.10;;;;;;2373025;56;21106;-74
2022/04/15 06:57:43;;;;;;;37.17;17.65;;;11.20;75.20;;;;;;2373095;56;21377;-74
2022/04/15 07:00:13;;;;;;;41.10;17.00;;;11.20;75.70;;;;;;2373631;56;21042;-76
2022/04/15 07:02:41;;;;;;;36.22;18.25;;;11.10;76.10;;;;;;2373435;56;21039;-75
2022/04/15 07:05:09;;;;;;;32.20;14.25;;;11.10;76.20;;;;;;2372063;56;21086;-74
2022/04/15 07:07:37;;;;;;;34.47;17.33;;;11.10;76.10;;;;;;2372919;56;22130;-75
2022/04/15 07:10:07;;;;;;;44.97;18.87;;;11.10;76.20;;;;;;2373387;56;21043;-74
2022/04/15 07:12:34;;;;;;;37.17;17.48;;;11.00;76.60;;;;;;2373158;56;21114;-75
2022/04/15 07:15:02;;;;;;;43.83;18.33;;;11.00;76.90;;;;;;2373260;56;21074;-74
2022/04/15 07:17:30;;;;;;;43.70;19.23;;;11.00;77.00;;;;;;2371660;56;21628;-75
2022/04/15 07:19:57;;;;;;;48.63;20.90;;;11.00;77.00;;;;;;2371837;56;21043;-75
2022/04/15 07:22:26;;;;;;;43.33;19.23;;;11.00;77.30;;;;;;2372777;56;21051;-76
2022/04/15 07:24:53;;;;;;;43.47;20.15;;;11.00;77.30;;;;;;2625564;52;21051;-73
2022/04/15 07:27:20;;;;;;;50.97;20.90;;;11.00;77.30;;;;;;2372482;56;21051;-76
2022/04/15 07:29:47;;;;;;;48.72;21.17;;;11.10;77.00;;;;;;2372464;56;21129;-75
2022/04/15 07:32:21;;;;;;;42.17;19.92;;;11.20;76.90;;;;;;2372449;56;21126;-77
2022/04/15 07:34:49;;;;;;;50.50;21.48;;;11.20;76.80;;;;;;2372931;56;21345;-77
2022/04/15 07:37:17;;;;;;;36.45;17.77;;;11.20;76.60;;;;;;2624751;52;21127;-76
2022/04/15 07:39:45;;;;;;;36.75;17.17;;;11.20;76.70;;;;;;2373239;56;21141;-75
2022/04/15 07:42:13;;;;;;;35.03;17.62;;;11.20;76.80;;;;;;2373176;56;21141;-77
2022/04/15 07:44:41;;;;;;;38.20;19.48;;;11.30;76.70;;;;;;2372877;56;21067;-73
2022/04/15 07:47:08;;;;;;;45.10;19.30;;;11.30;76.40;;;;;;2371486;56;21035;-74
2022/04/15 07:49:36;;;;;;;40.78;18.23;;;11.20;76.40;;;;;;2373258;56;22194;-73
2022/04/15 07:52:05;;;;;;;39.70;19.83;;;11.20;76.70;;;;;;2372992;56;21115;-73
2022/04/15 07:54:33;;;;;;;40.67;19.20;;;11.20;76.80;;;;;;2373567;56;21146;-73
2022/04/15 07:57:01;;;;;;;37.20;18.40;;;11.30;76.90;;;;;;2372633;56;21047;-74
2022/04/15 07:59:29;;;;;;;35.45;17.90;;;11.20;76.80;;;;;;2373139;56;21035;-75
2022/04/15 08:01:58;;;;;;;39.88;17.17;;;11.20;77.00;;;;;;2373014;56;21039;-76
2022/04/15 08:04:26;;;;;;;33.35;19.02;;;11.20;76.80;;;;;;2372653;56;21154;-75
2022/04/15 08:06:53;;;;;;;28.58;15.27;;;11.30;76.20;;;;;;2626168;52;21070;-76
2022/04/15 08:09:22;;;;;;;31.98;15.68;;;11.30;75.80;;;;;;2329356;55;66980;-77
2022/04/15 08:11:49;;;;;;;28.55;14.98;;;11.40;75.80;;;;;;2483166;56;21153;-77
2022/04/15 08:14:16;;;;;;;24.02;14.73;;;11.40;75.20;;;;;;2255862;59;21122;-79
2022/04/15 08:16:44;;;;;;;27.73;14.50;;;11.40;75.10;;;;;;2255006;59;21138;-78
2022/04/15 08:21:47;;;;;;;26.90;15.15;;;11.50;74.60;;;;;;2327012;57;22110;-74
2022/04/15 08:24:14;;;;;;;25.12;14.02;;;11.50;74.50;;;;;;2360943;57;21120;-74
2022/04/15 08:26:44;;;;;;;26.92;15.52;;;11.50;74.60;;;;;;2355550;57;21068;-75
2022/04/15 08:29:12;;;;;;;22.13;12.50;;;11.60;74.90;;;;;;2358340;57;21120;-72
2022/04/15 08:31:39;;;;;;;24.27;14.38;;;11.70;74.70;;;;;;2356543;57;21667;-77
2022/04/15 08:34:06;;;;;;;24.75;12.93;;;11.80;73.90;;;;;;2357987;57;21057;-76
2022/04/15 08:36:34;;;;;;;25.30;14.85;;;11.80;73.60;;;;;;2606801;53;21042;-78
2022/04/15 08:39:02;;;;;;;25.85;14.55;;;11.90;72.80;;;;;;2359262;57;21121;-76
2022/04/15 08:41:35;;;;;;;29.95;15.13;;;12.00;72.40;;;;;;2609418;53;21116;-75
2022/04/15 08:44:03;;;;;;;;;;;11.90;72.40;;;;;;2614022;53;21021;-75
2022/04/15 08:46:31;;;;;;;29.10;13.55;;;11.90;72.40;;;;;;2358831;57;20590;-76
2022/04/15 08:49:00;;;;;;;32.28;15.40;;;11.90;72.20;;;;;;2610115;53;21041;-76
2022/04/15 08:51:29;;;;;;;28.10;15.43;;;11.80;72.20;;;;;;2609679;53;21036;-75
2022/04/15 08:53:58;;;;;;;27.65;14.57;;;11.80;72.60;;;;;;2608380;53;21089;-76
2022/04/15 08:56:25;;;;;;;26.50;14.68;;;11.90;72.60;;;;;;2359149;57;21069;-76
2022/04/15 08:58:52;;;;;;;27.98;14.73;;;11.80;72.70;;;;;;2359671;57;22151;-75
2022/04/15 09:01:20;;;;;;;33.63;16.98;;;11.80;72.90;;;;;;2359495;57;21615;-76
2022/04/15 09:03:47;;;;;;;31.20;15.40;;;11.80;73.00;;;;;;2359588;57;21037;-76
2022/04/15 09:06:15;;;;;;;30.75;16.27;;;11.80;72.80;;;;;;2358588;57;21187;-74
2022/04/15 09:08:59;;;;;;;35.30;17.10;;;11.90;72.70;;;;;;2609580;53;21112;-75
2022/04/15 09:11:31;;;;;;;31.37;16.02;;;11.80;72.60;;;;;;2358143;57;21671;-75
2022/04/15 09:14:03;;;;;;;40.17;20.52;;;11.80;72.50;;;;;;2609493;53;21189;-75
2022/04/15 09:16:31;;;;;;;42.22;18.02;;;11.80;72.50;;;;;;2359342;57;21045;-76
2022/04/15 09:18:58;;;;;;;39.13;20.37;;;11.90;72.40;;;;;;2609277;53;21524;-75
2022/04/15 09:21:26;;;;;;;33.42;16.85;;;11.80;72.30;;;;;;2359762;57;21037;-76
2022/04/15 09:23:55;;;;;;;38.95;18.95;;;11.90;72.60;;;;;;2359682;57;21112;-75
2022/04/15 09:26:24;;;;;;;33.38;16.05;;;11.80;72.60;;;;;;2358420;57;21044;-75
2022/04/15 09:28:53;;;;;;;35.08;18.80;;;11.80;72.90;;;;;;2358088;57;21041;-76
2022/04/15 09:31:22;;;;;;;35.65;18.20;;;11.80;72.70;;;;;;2358807;57;21112;-76
2022/04/15 09:33:55;;;;;;;36.85;18.85;;;11.80;72.80;;;;;;2357249;57;21548;-76
2022/04/15 09:36:27;;;;;;;37.45;20.02;;;11.70;72.90;;;;;;2359071;57;21112;-76
2022/04/15 09:39:10;;;;;;;44.38;21.12;;;11.60;73.10;;;;;;2609086;53;21643;-77
2022/04/15 09:41:37;;;;;;;;;;;11.60;73.20;;;;;;2362608;57;21077;-76
2022/04/15 09:44:05;;;;;;;38.50;19.08;;;11.70;73.20;;;;;;2358690;57;20636;-76
2022/04/15 09:46:32;;;;;;;40.30;18.08;;;11.60;73.00;;;;;;2358635;57;21195;-76
2022/04/15 09:49:07;;;;;;;38.00;19.40;;;11.60;73.50;;;;;;2608128;53;21037;-73
2022/04/15 09:51:38;;;;;;;36.05;18.30;;;11.60;73.80;;;;;;2357826;57;21049;-76
2022/04/15 09:54:07;;;;;;;38.05;17.85;;;11.60;74.20;;;;;;2358707;57;21186;-75
2022/04/15 09:56:36;;;;;;;36.38;17.73;;;11.60;74.40;;;;;;2358310;57;21113;-76
2022/04/15 09:59:08;;;;;;;38.47;18.70;;;11.60;74.50;;;;;;2358464;57;21041;-76
2022/04/15 10:01:40;;;;;;;35.85;17.37;;;11.60;74.70;;;;;;2358483;57;21041;-75
2022/04/15 10:04:10;;;;;;;39.17;18.02;;;11.70;74.70;;;;;;2358420;57;21081;-76
2022/04/15 10:06:39;;;;;;;39.20;18.67;;;11.70;74.70;;;;;;2606810;53;22403;-76
2022/04/15 10:09:09;;;;;;;36.25;18.10;;;11.80;74.50;;;;;;2357866;57;21524;-76
2022/04/15 10:11:40;;;;;;;38.88;20.45;;;11.80;74.30;;;;;;2358719;57;21112;-77
2022/04/15 10:14:08;;;;;;;36.90;18.73;;;11.80;74.40;;;;;;2608402;53;21042;-76
2022/04/15 10:16:39;;;;;;;35.53;17.52;;;11.80;74.30;;;;;;2607695;52;21013;-77
2022/04/15 10:19:07;;;;;;;37.40;19.30;;;11.80;74.30;;;;;;2608590;53;21049;-76
2022/04/15 10:21:36;;;;;;;36.78;16.40;;;11.80;74.30;;;;;;2358444;57;21097;-76
2022/04/15 10:26:42;;;;;;;39.38;20.85;;;11.80;74.00;;;;;;2333323;57;27867;-75
2022/04/15 10:29:10;;;;;;;39.58;19.10;;;11.60;75.50;;;;;;2607309;52;21142;-74
2022/04/15 10:31:39;;;;;;;30.45;15.55;;;11.80;74.80;;;;;;2625517;52;21151;-74
2022/04/15 10:34:12;;;;;;;33.60;16.73;;;11.80;74.30;;;;;;2625333;52;21055;-73
2022/04/15 10:36:45;;;;;;;35.75;18.12;;;11.80;74.20;;;;;;2625016;52;21052;-77
2022/04/15 10:39:14;;;;;;;36.58;16.80;;;11.80;74.30;;;;;;2625381;52;21302;-77
2022/04/15 10:41:57;;;;;;;39.83;17.77;;;11.80;74.30;;;;;;2625442;52;21146;-78
2022/04/15 10:44:37;;;;;;;36.95;16.42;;;11.70;74.40;;;;;;2601539;52;21124;-75
2022/04/15 10:47:31;;;;;;;28.77;14.73;;;11.80;74.60;;;;;;2625039;52;21059;-79
2022/04/15 10:50:03;;;;;;;37.55;16.40;;;11.80;74.50;;;;;;2618758;52;21105;-78
2022/04/15 10:52:33;;;;;;;29.90;14.25;;;11.70;74.60;;;;;;2625768;52;21553;-78
2022/04/15 10:55:02;;;;;;;33.00;16.10;;;11.80;74.50;;;;;;2625869;52;21060;-78
2022/04/15 10:57:33;;;;;;;31.83;14.70;;;11.70;74.60;;;;;;2625104;52;21067;-79
2022/04/15 11:02:49;;;;;;;32.30;13.27;;;11.70;75.00;;;;;;2372245;56;21051;-79
2022/04/15 11:05:33;;;;;;;30.17;13.18;;;11.70;74.90;;;;;;2624556;52;21071;-77
2022/04/15 11:08:06;;;;;;;22.20;11.23;;;11.70;75.20;;;;;;2624928;52;21116;-79
2022/04/15 11:10:59;;;;;;;26.27;13.50;;;11.80;74.90;;;;;;2625592;52;21126;-79
2022/04/15 11:13:53;;;;;;;28.15;11.85;;;11.80;74.80;;;;;;2624923;52;21067;-78
2022/04/15 11:16:22;;;;;;;21.10;11.55;;;11.80;74.60;;;;;;2624420;52;21818;-78
2022/04/15 11:18:51;;;;;;;20.73;9.90;;;11.80;74.70;;;;;;2625474;52;21055;-78
2022/04/15 11:21:21;;;;;;;19.05;10.40;;;11.90;74.30;;;;;;2624998;52;21124;-79
2022/04/15 11:23:51;;;;;;;23.02;10.10;;;11.80;74.40;;;;;;2625970;52;21119;-79
2022/04/15 11:26:20;;;;;;;21.92;10.98;;;11.90;74.50;;;;;;2625633;52;21896;-80
2022/04/15 11:28:50;;;;;;;17.05;9.77;;;11.90;74.60;;;;;;2625971;52;21142;-79
2022/04/15 11:31:23;;;;;;;14.18;8.48;;;11.90;74.60;;;;;;2625166;52;21123;-79
2022/04/15 11:33:51;;;;;;;17.00;9.43;;;11.90;74.10;;;;;;2625928;52;21162;-79
2022/04/15 11:36:20;;;;;;;13.68;8.35;;;11.80;74.00;;;;;;2624844;52;21079;-79
2022/04/15 11:38:48;;;;;;;15.30;8.23;;;11.80;74.70;;;;;;2624341;52;22125;-78
2022/04/15 11:41:19;;;;;;;13.38;7.65;;;11.80;73.90;;;;;;2624154;52;21851;-79
2022/04/15 11:43:56;;;;;;;15.57;7.53;;;11.80;74.00;;;;;;2624783;52;21885;-79
2022/04/15 11:46:23;;;;;;;12.00;6.93;;;11.70;74.30;;;;;;2623747;52;21044;-78
2022/04/15 11:48:51;;;;;;;11.98;7.25;;;11.70;74.20;;;;;;2624643;52;21552;-78
2022/04/15 11:51:23;;;;;;;15.10;8.48;;;11.70;74.20;;;;;;2624083;52;21139;-79
2022/04/15 11:53:54;;;;;;;15.23;7.68;;;11.70;74.50;;;;;;2624615;52;21067;-79
2022/04/15 11:56:26;;;;;;;12.18;6.75;;;11.70;74.60;;;;;;2624089;52;21143;-79
2022/04/15 11:58:54;;;;;;;11.98;6.82;;;11.70;75.10;;;;;;2624323;52;21111;-79
2022/04/15 12:01:27;;;;;;;13.23;7.28;;;11.70;74.80;;;;;;2370888;56;21099;-77
2022/04/15 12:03:55;;;;;;;11.30;7.07;;;11.70;74.90;;;;;;2623445;52;21047;-77
2022/04/15 12:06:22;;;;;;;17.12;9.50;;;11.70;75.20;;;;;;2623734;52;21087;-84
2022/04/15 12:08:50;;;;;;;18.10;9.93;;;11.80;74.80;;;;;;2626649;52;21127;-81
2022/04/15 12:11:22;;;;;;;15.80;8.00;;;11.70;74.50;;;;;;2373338;56;21533;-81
2022/04/15 12:13:54;;;;;;;14.13;7.50;;;11.70;74.60;;;;;;2373603;56;21071;-81
2022/04/15 12:16:21;;;;;;;14.00;8.35;;;11.70;74.60;;;;;;2373400;56;21130;-81
2022/04/15 12:18:49;;;;;;;19.17;9.93;;;11.70;74.80;;;;;;2373671;56;21224;-81
2022/04/15 12:21:17;;;;;;;17.20;8.15;;;11.60;74.80;;;;;;2373346;56;21060;-81
2022/04/15 12:24:01;;;;;;;15.32;8.15;;;11.60;75.00;;;;;;2626808;52;21063;-81
2022/04/15 12:26:28;;;;;;;20.17;10.48;;;11.60;75.30;;;;;;2373061;56;21061;-81
2022/04/15 12:31:49;;;;;;;17.50;8.48;;;11.70;75.00;;;;;;2373722;56;21008;-81
2022/04/15 12:34:16;;;;;;;17.05;8.43;;;11.80;75.10;;;;;;2373050;56;21132;-81
2022/04/15 12:36:45;;;;;;;17.73;9.02;;;11.80;75.00;;;;;;2626881;52;21977;-81
2022/04/15 12:39:14;;;;;;;15.40;7.43;;;11.80;75.40;;;;;;2629977;52;21051;-81
2022/04/15 12:41:46;;;;;;;19.52;9.52;;;11.80;75.10;;;;;;2627504;52;21055;-82
2022/04/15 12:44:19;;;;;;;21.52;9.68;;;11.80;75.00;;;;;;2626632;52;21119;-82
2022/04/15 12:46:48;;;;;;;14.45;7.55;;;11.90;74.80;;;;;;2626330;52;21059;-79
2022/04/15 12:49:27;;;;;;;15.77;7.87;;;11.90;74.90;;;;;;2624339;52;21075;-78
2022/04/15 12:52:06;;;;;;;16.50;8.52;;;12.00;75.00;;;;;;2623649;52;21618;-78